Jonestown, Texas
Current Conditions -  °F | °C
As of 2:15 PM on Friday 19 Dec 2014 (Local Time) from KRYW Reporting Station
Overcast Overcast  
Wind Chill: 53°   Ceiling: 1000
Heat Index: 53°   Visibility: 10mi
Dew Point: 48°   Wind: 7mph
Humidity: 85%   Direction: 10°N
Pressure: 30.1"   Gusts: NA
Location:  30.4521°N, 97.9683°W
Report Text: KRYW 192015Z AUTO 01006KT 10SM OVC010 12/09 A3010 RMK AO2 T01150090
Loading
Personal Weather Stations






























Interactive Weather Map New forecast layout! Learn more

10-Day Weather Forecast

Advertisements
Track Severe Weather on mobile